createdAt,value
2023-04-22T00:00:08.251Z,1005.35
2023-04-22T00:01:08.205Z,1005.41
2023-04-22T00:02:08.240Z,1005.36
2023-04-22T00:03:08.262Z,1005.33
2023-04-22T00:04:08.455Z,1005.38
2023-04-22T00:05:08.100Z,1005.36
2023-04-22T00:06:07.980Z,1005.32
2023-04-22T00:07:07.913Z,1005.35
2023-04-22T00:08:07.867Z,1005.36
2023-04-22T00:09:07.823Z,1005.33
2023-04-22T00:10:07.778Z,1005.32
2023-04-22T00:11:07.747Z,1005.30
2023-04-22T00:12:07.695Z,1005.34
2023-04-22T00:13:07.654Z,1005.29
2023-04-22T00:14:07.600Z,1005.34
2023-04-22T00:15:07.535Z,1005.32
2023-04-22T00:16:07.743Z,1005.30
2023-04-22T00:17:07.445Z,1005.31
2023-04-22T00:18:07.457Z,1005.32
2023-04-22T00:19:07.352Z,1005.29
2023-04-22T00:20:07.306Z,1005.24
2023-04-22T00:21:07.254Z,1005.23
2023-04-22T00:22:07.230Z,1005.21
2023-04-22T00:23:07.165Z,1005.25
2023-04-22T00:24:07.112Z,1005.24
2023-04-22T00:25:07.084Z,1005.22
2023-04-22T00:26:07.025Z,1005.23
2023-04-22T00:27:06.985Z,1005.25
2023-04-22T00:28:06.924Z,1005.19
2023-04-22T00:29:06.900Z,1005.19
2023-04-22T00:30:06.850Z,1005.20
2023-04-22T00:31:06.819Z,1005.20
2023-04-22T00:32:06.737Z,1005.17
2023-04-22T00:33:06.749Z,1005.19
2023-04-22T00:34:06.656Z,1005.21
2023-04-22T00:35:06.681Z,1005.21
2023-04-22T00:36:06.552Z,1005.20
2023-04-22T00:37:06.505Z,1005.18
2023-04-22T00:38:06.468Z,1005.20
2023-04-22T00:39:06.418Z,1005.19
2023-04-22T00:40:06.357Z,1005.18
2023-04-22T00:41:06.308Z,1005.17
2023-04-22T00:42:06.261Z,1005.20
2023-04-22T00:43:06.215Z,1005.18
2023-04-22T00:44:06.166Z,1005.13
2023-04-22T00:45:06.121Z,1005.10
2023-04-22T00:46:06.099Z,1005.12
2023-04-22T00:47:06.082Z,1005.11
2023-04-22T00:48:06.079Z,1005.07
2023-04-22T00:49:05.933Z,1005.11
2023-04-22T00:50:05.887Z,1005.13
2023-04-22T00:51:05.836Z,1005.08
2023-04-22T00:52:05.796Z,1005.11
2023-04-22T00:53:05.741Z,1005.08
2023-04-22T00:54:05.711Z,1005.08
2023-04-22T00:55:05.643Z,1005.08
2023-04-22T00:56:05.596Z,1005.07
2023-04-22T00:57:05.551Z,1005.04
2023-04-22T00:58:05.501Z,1005.04
2023-04-22T00:59:05.465Z,1005.08
2023-04-22T01:00:05.429Z,1005.07
2023-04-22T01:01:05.402Z,1005.06
2023-04-22T01:02:05.384Z,1005.03
2023-04-22T01:03:05.469Z,1005.08
2023-04-22T01:04:05.397Z,1005.04
2023-04-22T01:05:05.175Z,1005.04
2023-04-22T01:06:05.140Z,1005.05
2023-04-22T01:07:05.082Z,1005.11
2023-04-22T01:08:05.035Z,1005.10
2023-04-22T01:09:05.018Z,1005.10
2023-04-22T01:10:05.004Z,1005.09
2023-04-22T01:11:04.968Z,1005.09
2023-04-22T01:12:04.849Z,1005.08
2023-04-22T01:13:04.797Z,1005.09
2023-04-22T01:14:04.756Z,1005.12
2023-04-22T01:15:05.184Z,1005.09
2023-04-22T01:16:04.764Z,1005.11
2023-04-22T01:17:04.692Z,1005.09
2023-04-22T01:18:04.623Z,1005.06
2023-04-22T01:19:04.517Z,1005.11
2023-04-22T01:20:04.609Z,1005.08
2023-04-22T01:21:04.433Z,1005.10
2023-04-22T01:22:04.374Z,1005.08
2023-04-22T01:23:04.333Z,1005.10
2023-04-22T01:24:04.281Z,1005.07
2023-04-22T01:25:04.243Z,1005.10
2023-04-22T01:26:04.211Z,1005.11
2023-04-22T01:27:04.140Z,1005.12
2023-04-22T01:28:04.113Z,1005.13
2023-04-22T01:29:04.045Z,1005.15
2023-04-22T01:30:04.010Z,1005.09
2023-04-22T01:31:03.955Z,1005.12
2023-04-22T01:32:04.037Z,1005.15
2023-04-22T01:33:03.893Z,1005.13
2023-04-22T01:34:03.831Z,1005.14
2023-04-22T01:35:03.774Z,1005.15
2023-04-22T01:36:03.726Z,1005.14
2023-04-22T01:37:03.667Z,1005.15
2023-04-22T01:38:03.618Z,1005.16
2023-04-22T01:39:03.591Z,1005.20
2023-04-22T01:40:03.527Z,1005.15
2023-04-22T01:41:03.477Z,1005.17
2023-04-22T01:42:03.510Z,1005.16
2023-04-22T01:43:03.392Z,1005.16
2023-04-22T01:44:03.339Z,1005.19
2023-04-22T01:45:03.290Z,1005.15
2023-04-22T01:46:03.261Z,1005.15
2023-04-22T01:47:03.194Z,1005.10
2023-04-22T01:48:03.175Z,1005.13
2023-04-22T01:49:03.107Z,1005.12
2023-04-22T01:50:03.054Z,1005.11
2023-04-22T01:51:03.011Z,1005.09
2023-04-22T01:52:02.963Z,1005.08
2023-04-22T01:53:02.963Z,1005.06
2023-04-22T01:54:02.867Z,1005.06
2023-04-22T01:55:02.828Z,1005.02
2023-04-22T01:56:02.774Z,1005.03
2023-04-22T01:57:02.725Z,1005.05
2023-04-22T01:58:02.699Z,1005.06
2023-04-22T01:59:02.637Z,1005.06
2023-04-22T02:00:02.606Z,1005.05
2023-04-22T02:01:02.551Z,1005.05
2023-04-22T02:02:02.544Z,1005.07
2023-04-22T02:03:02.533Z,1005.05
2023-04-22T02:04:02.410Z,1005.05
2023-04-22T02:05:02.425Z,1005.08
2023-04-22T02:06:02.299Z,1005.08
2023-04-22T02:07:02.256Z,1005.11
2023-04-22T02:08:02.204Z,1005.09
2023-04-22T02:09:02.158Z,1005.09
2023-04-22T02:10:02.110Z,1005.12
2023-04-22T02:11:02.064Z,1005.13
2023-04-22T02:12:02.026Z,1005.14
2023-04-22T02:13:01.977Z,1005.13
2023-04-22T02:14:01.937Z,1005.13
2023-04-22T02:15:01.882Z,1005.11
2023-04-22T02:16:01.875Z,1005.11
2023-04-22T02:17:01.821Z,1005.12
2023-04-22T02:18:01.733Z,1005.13
2023-04-22T02:19:01.697Z,1005.02
2023-04-22T02:20:01.733Z,1005.06
2023-04-22T02:21:01.590Z,1005.10
2023-04-22T02:22:01.542Z,1005.07
2023-04-22T02:23:01.518Z,1005.08
2023-04-22T02:24:01.445Z,1005.11
2023-04-22T02:25:01.411Z,1005.11
2023-04-22T02:26:01.356Z,1005.10
2023-04-22T02:27:01.316Z,1005.09
2023-04-22T02:28:01.264Z,1005.04
2023-04-22T02:29:01.213Z,1005.07
2023-04-22T02:30:01.216Z,1005.01
2023-04-22T02:31:01.164Z,1004.98
2023-04-22T02:32:01.077Z,1005.00
2023-04-22T02:33:01.134Z,1004.98
2023-04-22T02:34:00.995Z,1004.95
2023-04-22T02:35:00.944Z,1005.04
2023-04-22T02:36:00.886Z,1005.00
2023-04-22T02:37:00.836Z,1004.99
2023-04-22T02:38:00.802Z,1004.97
2023-04-22T02:39:00.744Z,1004.97
2023-04-22T02:40:00.706Z,1004.97
2023-04-22T02:41:00.646Z,1004.94
2023-04-22T02:42:00.601Z,1004.94
2023-04-22T02:43:00.559Z,1004.95
2023-04-22T02:44:00.532Z,1004.91
2023-04-22T02:45:00.466Z,1004.92
2023-04-22T02:46:00.453Z,1004.93
2023-04-22T02:47:00.503Z,1004.86
2023-04-22T02:48:00.363Z,1004.89
2023-04-22T02:49:00.280Z,1004.88
2023-04-22T02:50:00.248Z,1004.84
2023-04-22T02:51:00.175Z,1004.84
2023-04-22T02:52:00.163Z,1004.86
2023-04-22T02:53:00.096Z,1004.86
2023-04-22T02:54:00.041Z,1004.81
2023-04-22T02:54:59.996Z,1004.81
2023-04-22T02:55:59.957Z,1004.82
2023-04-22T02:56:59.901Z,1004.78
2023-04-22T02:57:59.860Z,1004.73
2023-04-22T02:58:59.800Z,1004.75
2023-04-22T02:59:59.755Z,1004.75
2023-04-22T03:00:59.843Z,1004.77
2023-04-22T03:01:59.748Z,1004.76
2023-04-22T03:02:59.724Z,1004.75
2023-04-22T03:04:00.084Z,1004.78
2023-04-22T03:04:59.518Z,1004.74
2023-04-22T03:05:59.474Z,1004.76
2023-04-22T03:06:59.430Z,1004.72
2023-04-22T03:07:59.377Z,1004.73
2023-04-22T03:08:59.333Z,1004.71
2023-04-22T03:09:59.292Z,1004.70
2023-04-22T03:10:59.239Z,1004.68
2023-04-22T03:11:59.192Z,1004.69
2023-04-22T03:12:59.143Z,1004.62
2023-04-22T03:13:59.100Z,1004.64
2023-04-22T03:14:59.056Z,1004.61
2023-04-22T03:15:59.003Z,1004.61
2023-04-22T03:16:59.075Z,1004.61
2023-04-22T03:17:59.002Z,1004.59
2023-04-22T03:18:58.863Z,1004.59
2023-04-22T03:19:58.824Z,1004.59
2023-04-22T03:20:58.774Z,1004.48
2023-04-22T03:21:58.721Z,1004.55
2023-04-22T03:22:58.670Z,1004.55
2023-04-22T03:23:58.629Z,1004.51
2023-04-22T03:24:58.593Z,1004.50
2023-04-22T03:25:58.541Z,1004.50
2023-04-22T03:26:58.493Z,1004.51
2023-04-22T03:27:58.441Z,1004.48
2023-04-22T03:28:58.393Z,1004.50
2023-04-22T03:29:58.346Z,1004.53
2023-04-22T03:30:58.300Z,1004.50
2023-04-22T03:31:58.293Z,1004.52
2023-04-22T03:32:58.253Z,1004.51
2023-04-22T03:33:58.214Z,1004.54
2023-04-22T03:34:58.117Z,1004.50
2023-04-22T03:35:58.075Z,1004.47
2023-04-22T03:36:58.016Z,1004.45
2023-04-22T03:37:58.002Z,1004.46
2023-04-22T03:38:57.926Z,1004.47
2023-04-22T03:39:57.899Z,1004.47
2023-04-22T03:40:57.830Z,1004.42
2023-04-22T03:41:57.783Z,1004.40
2023-04-22T03:42:57.735Z,1004.35
2023-04-22T03:43:59.540Z,1004.34
2023-04-22T03:44:57.652Z,1004.39
2023-04-22T03:45:57.628Z,1004.39
2023-04-22T03:46:57.584Z,1004.41
2023-04-22T03:47:57.547Z,1004.35
2023-04-22T03:48:57.452Z,1004.35
2023-04-22T03:49:57.426Z,1004.35
2023-04-22T03:50:57.356Z,1004.36
2023-04-22T03:51:57.318Z,1004.35
2023-04-22T03:52:57.281Z,1004.34
2023-04-22T03:53:57.222Z,1004.38
2023-04-22T03:54:57.169Z,1004.36
2023-04-22T03:55:57.127Z,1004.43
2023-04-22T03:56:57.085Z,1004.40
2023-04-22T03:57:57.032Z,1004.39
2023-04-22T03:58:56.986Z,1004.35
2023-04-22T03:59:56.939Z,1004.35
2023-04-22T04:00:56.890Z,1004.34
2023-04-22T04:01:56.874Z,1004.36
2023-04-22T04:02:56.934Z,1004.35
2023-04-22T04:03:56.979Z,1004.31
2023-04-22T04:04:57.016Z,1004.26
2023-04-22T04:05:56.749Z,1004.28
2023-04-22T04:06:56.610Z,1004.28
2023-04-22T04:07:56.563Z,1004.22
2023-04-22T04:08:56.514Z,1004.25
2023-04-22T04:09:56.465Z,1004.24
2023-04-22T04:10:56.423Z,1004.23
2023-04-22T04:11:56.373Z,1004.24
2023-04-22T04:12:56.321Z,1004.26
2023-04-22T04:13:56.280Z,1004.22
2023-04-22T04:14:56.235Z,1004.24
2023-04-22T04:15:56.228Z,1004.27
2023-04-22T04:16:56.136Z,1004.27
2023-04-22T04:17:56.128Z,1004.23
2023-04-22T04:18:56.040Z,1004.24
2023-04-22T04:19:56.003Z,1004.23
2023-04-22T04:20:55.945Z,1004.26
2023-04-22T04:21:55.917Z,1004.23
2023-04-22T04:22:55.853Z,1004.24
2023-04-22T04:23:55.809Z,1004.20
2023-04-22T04:24:55.758Z,1004.23
2023-04-22T04:25:55.736Z,1004.20
2023-04-22T04:26:55.673Z,1004.20
2023-04-22T04:27:55.630Z,1004.17
2023-04-22T04:28:55.579Z,1004.13
2023-04-22T04:29:55.526Z,1004.15
2023-04-22T04:30:55.485Z,1004.13
2023-04-22T04:31:55.428Z,1004.12
2023-04-22T04:32:55.393Z,1004.11
2023-04-22T04:33:55.333Z,1004.12
2023-04-22T04:34:55.294Z,1004.10
2023-04-22T04:35:55.243Z,1004.08
2023-04-22T04:36:55.193Z,1004.00
2023-04-22T04:37:55.172Z,1004.03
2023-04-22T04:38:55.716Z,1004.04
2023-04-22T04:39:55.054Z,1004.02
2023-04-22T04:40:55.008Z,1004.06
2023-04-22T04:41:54.963Z,1004.06
2023-04-22T04:42:54.912Z,1004.08
2023-04-22T04:43:54.865Z,1004.07
2023-04-22T04:44:54.815Z,1004.07
2023-04-22T04:45:54.783Z,1004.05
2023-04-22T04:46:54.989Z,1004.05
2023-04-22T04:47:54.792Z,1004.07
2023-04-22T04:48:54.624Z,1004.01
2023-04-22T04:49:54.588Z,1004.04
2023-04-22T04:50:54.535Z,1004.03
2023-04-22T04:51:54.488Z,1003.98
2023-04-22T04:52:54.442Z,1004.00
2023-04-22T04:53:54.413Z,1004.00
2023-04-22T04:54:54.348Z,1004.00
2023-04-22T04:55:54.301Z,1004.00
2023-04-22T04:56:54.260Z,1004.02
2023-04-22T04:57:54.207Z,1004.01
2023-04-22T04:58:54.160Z,1004.02
2023-04-22T04:59:54.116Z,1004.02
2023-04-22T05:00:54.063Z,1004.02
2023-04-22T05:01:54.043Z,1004.02
2023-04-22T05:02:54.049Z,1003.98
2023-04-22T05:03:54.033Z,1004.05
2023-04-22T05:04:53.927Z,1004.04
2023-04-22T05:05:53.834Z,1003.97
2023-04-22T05:06:53.786Z,1003.99
2023-04-22T05:07:53.762Z,1003.99
2023-04-22T05:08:53.694Z,1003.95
2023-04-22T05:09:53.669Z,1003.95
2023-04-22T05:10:53.598Z,1003.95
2023-04-22T05:11:53.558Z,1003.92
2023-04-22T05:12:53.510Z,1003.90
2023-04-22T05:13:53.459Z,1003.90
2023-04-22T05:14:53.414Z,1003.89
2023-04-22T05:15:53.367Z,1003.83
2023-04-22T05:16:53.405Z,1003.90
2023-04-22T05:17:53.300Z,1003.88
2023-04-22T05:18:53.227Z,1003.88
2023-04-22T05:19:53.183Z,1003.88
2023-04-22T05:20:53.131Z,1003.93
2023-04-22T05:21:53.083Z,1003.92
2023-04-22T05:22:53.045Z,1003.97
2023-04-22T05:23:53.001Z,1003.90
2023-04-22T05:24:52.962Z,1003.91
2023-04-22T05:25:53.488Z,1003.95
2023-04-22T05:26:52.850Z,1003.88
2023-04-22T05:27:52.807Z,1003.87
2023-04-22T05:28:52.782Z,1003.88
2023-04-22T05:29:52.720Z,1003.88
2023-04-22T05:30:52.679Z,1003.87
2023-04-22T05:31:52.697Z,1003.86
2023-04-22T05:32:52.651Z,1003.85
2023-04-22T05:33:52.531Z,1003.85
2023-04-22T05:34:52.480Z,1003.83
2023-04-22T05:35:52.478Z,1003.91
2023-04-22T05:36:52.388Z,1003.90
2023-04-22T05:37:52.341Z,1003.88
2023-04-22T05:38:52.299Z,1003.87
2023-04-22T05:39:52.247Z,1003.83
2023-04-22T05:40:52.205Z,1003.83
2023-04-22T05:41:52.178Z,1003.84
2023-04-22T05:42:52.103Z,1003.84
2023-04-22T05:43:52.079Z,1003.85
2023-04-22T05:44:52.028Z,1003.85
2023-04-22T05:45:51.988Z,1003.85
2023-04-22T05:46:51.938Z,1003.84
2023-04-22T05:47:51.971Z,1003.86
2023-04-22T05:48:51.879Z,1003.87
2023-04-22T05:49:51.781Z,1003.87
2023-04-22T05:50:51.730Z,1003.87
2023-04-22T05:51:51.682Z,1003.90
2023-04-22T05:52:51.635Z,1003.91
2023-04-22T05:53:51.595Z,1003.91
2023-04-22T05:54:51.542Z,1003.93
2023-04-22T05:55:51.498Z,1003.95
2023-04-22T05:56:51.449Z,1003.90
2023-04-22T05:57:51.513Z,1003.96
2023-04-22T05:58:51.361Z,1003.89
2023-04-22T05:59:51.317Z,1003.89
2023-04-22T06:00:51.263Z,1003.90
2023-04-22T06:01:51.224Z,1003.90
2023-04-22T06:02:51.326Z,1003.92
2023-04-22T06:03:51.332Z,1003.94
2023-04-22T06:04:51.391Z,1003.92
2023-04-22T06:05:51.104Z,1003.98
2023-04-22T06:06:50.983Z,1003.99
2023-04-22T06:07:50.938Z,1003.94
2023-04-22T21:45:33.324Z,1004.78
2023-04-22T21:46:33.261Z,1004.81
2023-04-22T21:47:33.222Z,1004.85
2023-04-22T21:48:33.974Z,1004.83
2023-04-22T21:49:33.103Z,1004.89
2023-04-22T21:50:33.062Z,1004.91
2023-04-22T21:51:33.003Z,1004.89
2023-04-22T21:52:32.953Z,1004.84
2023-04-22T21:53:32.908Z,1004.87
2023-04-22T21:54:32.863Z,1004.85
2023-04-22T21:55:32.815Z,1004.84
2023-04-22T21:56:32.765Z,1004.85
2023-04-22T21:57:32.734Z,1004.87
2023-04-22T21:58:32.690Z,1004.88
2023-04-22T21:59:32.637Z,1004.91
2023-04-22T22:00:32.591Z,1004.94
2023-04-22T22:01:32.590Z,1004.98
2023-04-22T22:02:32.599Z,1004.98
2023-04-22T22:03:32.543Z,1004.98
2023-04-22T22:04:32.500Z,1005.00
2023-04-22T22:05:32.361Z,1005.04
2023-04-22T22:06:32.320Z,1005.08
2023-04-22T22:07:32.276Z,1005.08
2023-04-22T22:08:32.231Z,1005.09
2023-04-22T22:09:32.185Z,1005.05
2023-04-22T22:10:32.138Z,1005.07
2023-04-22T22:11:32.097Z,1005.03
2023-04-22T22:12:32.067Z,1005.03
2023-04-22T22:13:32.026Z,1005.05
2023-04-22T22:14:31.965Z,1005.05
2023-04-22T22:15:31.923Z,1005.05
2023-04-22T22:16:31.944Z,1005.06
2023-04-22T22:17:31.854Z,1005.07
2023-04-22T22:18:31.786Z,1005.06
2023-04-22T22:19:31.742Z,1005.08
2023-04-22T22:20:31.695Z,1005.11
2023-04-22T22:21:31.655Z,1005.07
2023-04-22T22:22:33.029Z,1005.03
2023-04-22T22:23:31.572Z,1005.07
2023-04-22T22:24:31.572Z,1005.09
2023-04-22T22:25:31.486Z,1005.13
2023-04-22T22:26:31.431Z,1005.16
2023-04-22T22:27:31.392Z,1005.15
2023-04-22T22:28:31.348Z,1005.15
2023-04-22T22:29:31.301Z,1005.17
2023-04-22T22:31:31.244Z,1005.21
2023-04-22T22:32:31.251Z,1005.27
2023-04-22T22:33:31.146Z,1005.28
2023-04-22T22:34:31.088Z,1005.29
2023-04-22T22:35:31.037Z,1005.25
2023-04-22T22:36:30.996Z,1005.25
2023-04-22T22:37:30.955Z,1005.27
2023-04-22T22:38:30.908Z,1005.28
2023-04-22T22:39:30.861Z,1005.23
2023-04-22T22:40:30.818Z,1005.25
2023-04-22T22:41:30.774Z,1005.21
2023-04-22T22:42:30.733Z,1005.19
2023-04-22T22:43:30.691Z,1005.20
2023-04-22T22:44:30.643Z,1005.22
2023-04-22T22:45:30.624Z,1005.18
2023-04-22T22:46:30.571Z,1005.20
2023-04-22T22:47:30.531Z,1005.18
2023-04-22T22:48:30.465Z,1005.19
2023-04-22T22:49:30.439Z,1005.18
2023-04-22T22:50:30.422Z,1005.21
2023-04-22T22:51:30.340Z,1005.19
2023-04-22T22:52:30.287Z,1005.21
2023-04-22T22:53:30.294Z,1005.19
2023-04-22T22:54:30.221Z,1005.22
2023-04-22T22:55:30.199Z,1005.23
2023-04-22T22:56:30.120Z,1005.22
2023-04-22T22:57:30.068Z,1005.25
2023-04-22T22:58:30.031Z,1005.25
2023-04-22T22:59:29.989Z,1005.27
2023-04-22T23:00:29.938Z,1005.24
2023-04-22T23:01:29.975Z,1005.27
2023-04-22T23:02:29.946Z,1005.26
2023-04-22T23:03:30.106Z,1005.24
2023-04-22T23:04:29.937Z,1005.26
2023-04-22T23:05:29.761Z,1005.30
2023-04-22T23:06:29.687Z,1005.31
2023-04-22T23:07:29.647Z,1005.34
2023-04-22T23:08:29.593Z,1005.33
2023-04-22T23:09:29.546Z,1005.32
2023-04-22T23:10:29.517Z,1005.28
2023-04-22T23:11:29.470Z,1005.34
2023-04-22T23:12:29.432Z,1005.32
2023-04-22T23:13:29.476Z,1005.32
2023-04-22T23:14:29.568Z,1005.31
2023-04-22T23:15:29.489Z,1005.26
2023-04-22T23:16:29.310Z,1005.25
2023-04-22T23:17:29.236Z,1005.27
2023-04-22T23:18:29.153Z,1005.24
2023-04-22T23:19:29.125Z,1005.25
2023-04-22T23:20:29.073Z,1005.22
2023-04-22T23:21:29.039Z,1005.25
2023-04-22T23:22:28.978Z,1005.22
2023-04-22T23:23:28.931Z,1005.22
2023-04-22T23:24:28.891Z,1005.18
2023-04-22T23:25:28.846Z,1005.18
2023-04-22T23:26:28.801Z,1005.16
2023-04-22T23:27:28.756Z,1005.17
2023-04-22T23:28:28.748Z,1005.20
2023-04-22T23:29:28.671Z,1005.14
2023-04-22T23:30:28.629Z,1005.15
2023-04-22T23:31:28.655Z,1005.16
2023-04-22T23:32:28.559Z,1005.16
2023-04-22T23:33:28.500Z,1005.15
2023-04-22T23:34:28.451Z,1005.13
2023-04-22T23:35:28.417Z,1005.07
2023-04-22T23:36:28.362Z,1005.05
2023-04-22T23:37:28.352Z,1005.05
2023-04-22T23:38:28.276Z,1005.05
2023-04-22T23:39:28.230Z,1005.08
2023-04-22T23:40:28.194Z,1005.10
2023-04-22T23:41:28.141Z,1005.11
2023-04-22T23:42:28.124Z,1005.11
2023-04-22T23:43:28.058Z,1005.14
2023-04-22T23:44:28.024Z,1005.14
2023-04-22T23:45:27.964Z,1005.09
2023-04-22T23:46:28.021Z,1005.08
2023-04-22T23:47:27.917Z,1005.05
2023-04-22T23:48:27.832Z,1005.08
2023-04-22T23:49:27.790Z,1005.03
2023-04-22T23:50:27.748Z,1005.01
2023-04-22T23:51:27.699Z,1005.03
2023-04-22T23:52:27.659Z,1005.04
2023-04-22T23:53:27.631Z,1005.04
2023-04-22T23:54:27.567Z,1005.02
2023-04-22T23:55:27.537Z,1005.02
2023-04-22T23:56:27.479Z,1005.01
2023-04-22T23:57:27.447Z,1004.99
2023-04-22T23:58:27.395Z,1004.95
2023-04-22T23:59:27.352Z,1004.95
